sensor_id;sensor_type;location;lat;lon;timestamp;P1;durP1;ratioP1;P2;durP2;ratioP2
55497;SDS011;41357;52.806;18.268;2023-01-29T00:02:24;17.35;;;7.95;;
55497;SDS011;41357;52.806;18.268;2023-01-29T00:04:50;21.80;;;9.40;;
55497;SDS011;41357;52.806;18.268;2023-01-29T00:07:17;18.20;;;7.38;;
55497;SDS011;41357;52.806;18.268;2023-01-29T00:09:43;21.23;;;9.07;;
55497;SDS011;41357;52.806;18.268;2023-01-29T00:12:09;17.25;;;8.32;;
55497;SDS011;41357;52.806;18.268;2023-01-29T00:14:36;31.20;;;10.43;;
55497;SDS011;41357;52.806;18.268;2023-01-29T00:17:02;28.67;;;9.27;;
55497;SDS011;41357;52.806;18.268;2023-01-29T00:19:28;22.15;;;9.05;;
55497;SDS011;41357;52.806;18.268;2023-01-29T00:21:54;25.85;;;13.07;;
55497;SDS011;41357;52.806;18.268;2023-01-29T00:24:20;21.42;;;9.43;;
55497;SDS011;41357;52.806;18.268;2023-01-29T00:26:46;18.80;;;8.88;;
55497;SDS011;41357;52.806;18.268;2023-01-29T00:29:14;29.73;;;13.75;;
55497;SDS011;41357;52.806;18.268;2023-01-29T00:31:42;40.33;;;13.10;;
55497;SDS011;41357;52.806;18.268;2023-01-29T00:34:09;56.08;;;27.83;;
55497;SDS011;41357;52.806;18.268;2023-01-29T00:36:35;28.42;;;12.02;;
55497;SDS011;41357;52.806;18.268;2023-01-29T00:39:02;18.02;;;8.77;;
55497;SDS011;41357;52.806;18.268;2023-01-29T00:41:34;19.80;;;7.85;;
55497;SDS011;41357;52.806;18.268;2023-01-29T00:44:19;21.52;;;9.68;;
55497;SDS011;41357;52.806;18.268;2023-01-29T00:47:04;21.10;;;9.18;;
55497;SDS011;41357;52.806;18.268;2023-01-29T00:49:49;26.38;;;10.00;;
55497;SDS011;41357;52.806;18.268;2023-01-29T00:52:15;24.48;;;10.07;;
55497;SDS011;41357;52.806;18.268;2023-01-29T00:54:54;29.88;;;11.10;;
55497;SDS011;41357;52.806;18.268;2023-01-29T00:57:21;25.88;;;9.63;;
55497;SDS011;41357;52.806;18.268;2023-01-29T00:59:47;28.77;;;10.73;;
55497;SDS011;41357;52.806;18.268;2023-01-29T01:02:14;43.05;;;16.42;;
55497;SDS011;41357;52.806;18.268;2023-01-29T01:04:58;44.85;;;14.90;;
55497;SDS011;41357;52.806;18.268;2023-01-29T01:07:26;38.85;;;14.63;;
55497;SDS011;41357;52.806;18.268;2023-01-29T01:09:52;33.88;;;13.77;;
55497;SDS011;41357;52.806;18.268;2023-01-29T01:12:37;47.90;;;15.75;;
55497;SDS011;41357;52.806;18.268;2023-01-29T01:15:03;38.40;;;17.73;;
55497;SDS011;41357;52.806;18.268;2023-01-29T01:17:29;39.53;;;13.48;;
55497;SDS011;41357;52.806;18.268;2023-01-29T01:19:55;32.65;;;12.10;;
55497;SDS011;41357;52.806;18.268;2023-01-29T01:22:21;31.50;;;11.02;;
55497;SDS011;41357;52.806;18.268;2023-01-29T01:24:48;30.80;;;12.90;;
55497;SDS011;41357;52.806;18.268;2023-01-29T01:27:14;32.70;;;13.73;;
55497;SDS011;41357;52.806;18.268;2023-01-29T01:29:41;28.17;;;11.23;;
55497;SDS011;41357;52.806;18.268;2023-01-29T01:32:07;32.00;;;12.82;;
55497;SDS011;41357;52.806;18.268;2023-01-29T01:34:33;23.15;;;9.80;;
55497;SDS011;41357;52.806;18.268;2023-01-29T01:37:00;23.45;;;10.25;;
55497;SDS011;41357;52.806;18.268;2023-01-29T01:39:26;28.42;;;11.98;;
55497;SDS011;41357;52.806;18.268;2023-01-29T01:41:52;22.17;;;8.43;;
55497;SDS011;41357;52.806;18.268;2023-01-29T01:47:03;18.35;;;6.97;;
55497;SDS011;41357;52.806;18.268;2023-01-29T01:49:29;26.42;;;9.95;;
55497;SDS011;41357;52.806;18.268;2023-01-29T01:51:56;21.58;;;9.52;;
55497;SDS011;41357;52.806;18.268;2023-01-29T01:54:28;19.13;;;7.40;;
55497;SDS011;41357;52.806;18.268;2023-01-29T01:57:01;25.50;;;9.80;;
55497;SDS011;41357;52.806;18.268;2023-01-29T01:59:41;12.77;;;5.25;;
55497;SDS011;41357;52.806;18.268;2023-01-29T02:02:08;16.52;;;7.18;;
55497;SDS011;41357;52.806;18.268;2023-01-29T02:04:53;12.55;;;5.40;;
55497;SDS011;41357;52.806;18.268;2023-01-29T02:07:41;21.35;;;8.10;;
55497;SDS011;41357;52.806;18.268;2023-01-29T02:10:26;14.95;;;6.07;;
55497;SDS011;41357;52.806;18.268;2023-01-29T02:12:55;11.00;;;5.45;;
55497;SDS011;41357;52.806;18.268;2023-01-29T02:15:21;21.58;;;6.70;;
55497;SDS011;41357;52.806;18.268;2023-01-29T02:17:48;16.60;;;6.25;;
55497;SDS011;41357;52.806;18.268;2023-01-29T02:30:39;24.40;;;8.48;;
55497;SDS011;41357;52.806;18.268;2023-01-29T02:35:42;11.40;;;3.83;;
55497;SDS011;41357;52.806;18.268;2023-01-29T02:38:11;18.25;;;5.68;;
55497;SDS011;41357;52.806;18.268;2023-01-29T02:45:52;10.88;;;5.38;;
55497;SDS011;41357;52.806;18.268;2023-01-29T02:48:21;11.70;;;4.30;;
55497;SDS011;41357;52.806;18.268;2023-01-29T02:53:24;6.80;;;3.47;;
55497;SDS011;41357;52.806;18.268;2023-01-29T02:55:53;29.52;;;9.00;;
55497;SDS011;41357;52.806;18.268;2023-01-29T03:01:17;18.75;;;8.40;;
55497;SDS011;41357;52.806;18.268;2023-01-29T03:03:48;15.38;;;4.88;;
55497;SDS011;41357;52.806;18.268;2023-01-29T03:06:20;9.20;;;2.83;;
55497;SDS011;41357;52.806;18.268;2023-01-29T03:11:18;7.82;;;2.58;;
55497;SDS011;41357;52.806;18.268;2023-01-29T03:13:46;7.60;;;2.95;;
55497;SDS011;41357;52.806;18.268;2023-01-29T03:16:19;7.30;;;3.30;;
55497;SDS011;41357;52.806;18.268;2023-01-29T03:18:54;7.05;;;2.70;;
55497;SDS011;41357;52.806;18.268;2023-01-29T03:21:23;5.43;;;2.72;;
55497;SDS011;41357;52.806;18.268;2023-01-29T03:24:09;6.25;;;2.70;;
55497;SDS011;41357;52.806;18.268;2023-01-29T03:26:54;6.43;;;2.53;;
55497;SDS011;41357;52.806;18.268;2023-01-29T03:29:40;4.03;;;2.22;;
55497;SDS011;41357;52.806;18.268;2023-01-29T03:32:25;10.90;;;3.05;;
55497;SDS011;41357;52.806;18.268;2023-01-29T03:34:53;14.20;;;4.03;;
55497;SDS011;41357;52.806;18.268;2023-01-29T03:39:48;17.17;;;4.80;;
55497;SDS011;41357;52.806;18.268;2023-01-29T03:44:47;16.08;;;4.53;;
55497;SDS011;41357;52.806;18.268;2023-01-29T03:47:19;10.65;;;2.97;;
55497;SDS011;41357;52.806;18.268;2023-01-29T03:55:03;7.90;;;3.25;;
55497;SDS011;41357;52.806;18.268;2023-01-29T03:57:48;8.60;;;2.85;;
55497;SDS011;41357;52.806;18.268;2023-01-29T04:05:33;9.20;;;3.20;;
55497;SDS011;41357;52.806;18.268;2023-01-29T04:08:02;8.70;;;2.70;;
55497;SDS011;41357;52.806;18.268;2023-01-29T04:10:29;12.18;;;4.03;;
55497;SDS011;41357;52.806;18.268;2023-01-29T04:13:00;11.05;;;3.70;;
55497;SDS011;41357;52.806;18.268;2023-01-29T04:15:27;16.08;;;3.78;;
55497;SDS011;41357;52.806;18.268;2023-01-29T04:17:54;6.70;;;3.10;;
55497;SDS011;41357;52.806;18.268;2023-01-29T04:20:20;8.20;;;3.67;;
55497;SDS011;41357;52.806;18.268;2023-01-29T04:22:47;9.77;;;4.32;;
55497;SDS011;41357;52.806;18.268;2023-01-29T04:25:15;11.85;;;4.70;;
55497;SDS011;41357;52.806;18.268;2023-01-29T04:33:10;10.38;;;3.97;;
55497;SDS011;41357;52.806;18.268;2023-01-29T04:40:54;7.95;;;3.55;;
55497;SDS011;41357;52.806;18.268;2023-01-29T04:43:27;13.88;;;5.75;;
55497;SDS011;41357;52.806;18.268;2023-01-29T04:51:16;13.05;;;4.38;;
55497;SDS011;41357;52.806;18.268;2023-01-29T04:56:34;7.22;;;3.20;;
55497;SDS011;41357;52.806;18.268;2023-01-29T04:59:05;7.20;;;3.03;;
55497;SDS011;41357;52.806;18.268;2023-01-29T05:01:32;6.85;;;3.58;;
55497;SDS011;41357;52.806;18.268;2023-01-29T05:03:59;5.07;;;2.60;;
55497;SDS011;41357;52.806;18.268;2023-01-29T05:06:27;7.28;;;3.58;;
55497;SDS011;41357;52.806;18.268;2023-01-29T05:08:54;10.25;;;3.55;;
55497;SDS011;41357;52.806;18.268;2023-01-29T05:11:22;8.05;;;3.30;;
55497;SDS011;41357;52.806;18.268;2023-01-29T05:13:49;4.78;;;2.55;;
55497;SDS011;41357;52.806;18.268;2023-01-29T05:18:41;9.85;;;3.67;;
55497;SDS011;41357;52.806;18.268;2023-01-29T05:21:08;8.57;;;3.00;;
55497;SDS011;41357;52.806;18.268;2023-01-29T05:23:34;7.78;;;4.13;;
55497;SDS011;41357;52.806;18.268;2023-01-29T05:26:01;8.00;;;3.35;;
55497;SDS011;41357;52.806;18.268;2023-01-29T05:28:27;12.10;;;3.45;;
55497;SDS011;41357;52.806;18.268;2023-01-29T05:30:53;5.78;;;2.83;;
55497;SDS011;41357;52.806;18.268;2023-01-29T05:33:22;7.00;;;3.08;;
55497;SDS011;41357;52.806;18.268;2023-01-29T05:35:48;9.63;;;4.03;;
55497;SDS011;41357;52.806;18.268;2023-01-29T05:38:15;4.32;;;2.78;;
55497;SDS011;41357;52.806;18.268;2023-01-29T05:40:42;7.85;;;3.20;;
55497;SDS011;41357;52.806;18.268;2023-01-29T05:43:15;8.18;;;2.97;;
55497;SDS011;41357;52.806;18.268;2023-01-29T05:45:42;6.15;;;3.30;;
55497;SDS011;41357;52.806;18.268;2023-01-29T05:48:08;8.57;;;3.45;;
55497;SDS011;41357;52.806;18.268;2023-01-29T05:50:34;12.60;;;3.50;;
55497;SDS011;41357;52.806;18.268;2023-01-29T05:53:00;7.18;;;3.40;;
55497;SDS011;41357;52.806;18.268;2023-01-29T05:55:27;11.65;;;4.35;;
55497;SDS011;41357;52.806;18.268;2023-01-29T05:57:53;9.18;;;4.05;;
55497;SDS011;41357;52.806;18.268;2023-01-29T06:00:20;6.35;;;3.25;;
55497;SDS011;41357;52.806;18.268;2023-01-29T06:02:46;8.32;;;4.15;;
55497;SDS011;41357;52.806;18.268;2023-01-29T06:05:12;13.02;;;3.90;;
55497;SDS011;41357;52.806;18.268;2023-01-29T06:07:38;17.27;;;5.97;;
55497;SDS011;41357;52.806;18.268;2023-01-29T06:10:10;14.50;;;5.50;;
55497;SDS011;41357;52.806;18.268;2023-01-29T06:12:36;7.65;;;4.07;;
55497;SDS011;41357;52.806;18.268;2023-01-29T06:15:02;8.00;;;4.15;;
55497;SDS011;41357;52.806;18.268;2023-01-29T06:17:28;14.45;;;4.68;;
55497;SDS011;41357;52.806;18.268;2023-01-29T06:19:54;7.88;;;4.05;;
55497;SDS011;41357;52.806;18.268;2023-01-29T06:22:20;8.63;;;4.43;;
55497;SDS011;41357;52.806;18.268;2023-01-29T06:24:47;10.70;;;4.13;;
55497;SDS011;41357;52.806;18.268;2023-01-29T06:27:13;11.80;;;3.97;;
55497;SDS011;41357;52.806;18.268;2023-01-29T06:29:39;10.55;;;3.85;;
55497;SDS011;41357;52.806;18.268;2023-01-29T06:32:05;15.48;;;6.88;;
55497;SDS011;41357;52.806;18.268;2023-01-29T06:34:31;8.98;;;3.65;;
55497;SDS011;41357;52.806;18.268;2023-01-29T06:36:57;7.45;;;4.03;;
55497;SDS011;41357;52.806;18.268;2023-01-29T06:39:23;9.15;;;4.60;;
55497;SDS011;41357;52.806;18.268;2023-01-29T06:41:50;11.52;;;5.15;;
55497;SDS011;41357;52.806;18.268;2023-01-29T06:44:16;10.75;;;4.20;;
55497;SDS011;41357;52.806;18.268;2023-01-29T06:46:42;10.07;;;4.82;;
55497;SDS011;41357;52.806;18.268;2023-01-29T06:49:08;10.73;;;5.28;;
55497;SDS011;41357;52.806;18.268;2023-01-29T06:51:34;18.35;;;6.93;;
55497;SDS011;41357;52.806;18.268;2023-01-29T06:54:00;9.63;;;5.13;;
55497;SDS011;41357;52.806;18.268;2023-01-29T06:56:26;11.15;;;5.28;;
55497;SDS011;41357;52.806;18.268;2023-01-29T06:58:52;18.02;;;6.10;;
55497;SDS011;41357;52.806;18.268;2023-01-29T07:01:19;14.00;;;5.45;;
55497;SDS011;41357;52.806;18.268;2023-01-29T07:03:47;12.13;;;5.43;;
55497;SDS011;41357;52.806;18.268;2023-01-29T07:06:14;12.63;;;5.15;;
55497;SDS011;41357;52.806;18.268;2023-01-29T07:08:40;7.00;;;4.00;;
55497;SDS011;41357;52.806;18.268;2023-01-29T07:11:06;9.05;;;4.20;;
55497;SDS011;41357;52.806;18.268;2023-01-29T07:13:32;12.45;;;5.38;;
55497;SDS011;41357;52.806;18.268;2023-01-29T07:15:59;14.52;;;5.25;;
55497;SDS011;41357;52.806;18.268;2023-01-29T07:18:25;10.38;;;4.60;;
55497;SDS011;41357;52.806;18.268;2023-01-29T07:20:52;10.18;;;4.90;;
55497;SDS011;41357;52.806;18.268;2023-01-29T07:25:55;8.70;;;4.78;;
55497;SDS011;41357;52.806;18.268;2023-01-29T07:28:21;24.33;;;6.30;;
55497;SDS011;41357;52.806;18.268;2023-01-29T07:30:47;12.20;;;5.20;;
55497;SDS011;41357;52.806;18.268;2023-01-29T07:33:13;16.52;;;6.22;;
55497;SDS011;41357;52.806;18.268;2023-01-29T07:35:40;13.10;;;4.45;;
55497;SDS011;41357;52.806;18.268;2023-01-29T07:38:07;20.95;;;6.10;;
55497;SDS011;41357;52.806;18.268;2023-01-29T07:40:34;11.50;;;5.75;;
55497;SDS011;41357;52.806;18.268;2023-01-29T07:43:01;18.67;;;6.90;;
55497;SDS011;41357;52.806;18.268;2023-01-29T07:45:28;26.05;;;9.57;;
55497;SDS011;41357;52.806;18.268;2023-01-29T07:47:54;15.57;;;6.95;;
55497;SDS011;41357;52.806;18.268;2023-01-29T07:50:24;19.52;;;7.50;;
55497;SDS011;41357;52.806;18.268;2023-01-29T07:52:51;16.63;;;6.40;;
55497;SDS011;41357;52.806;18.268;2023-01-29T07:55:18;10.40;;;5.22;;
55497;SDS011;41357;52.806;18.268;2023-01-29T07:57:44;13.70;;;6.60;;
55497;SDS011;41357;52.806;18.268;2023-01-29T08:00:11;10.25;;;5.65;;
55497;SDS011;41357;52.806;18.268;2023-01-29T08:02:38;12.48;;;5.72;;
55497;SDS011;41357;52.806;18.268;2023-01-29T08:05:04;13.07;;;6.22;;
55497;SDS011;41357;52.806;18.268;2023-01-29T08:07:31;16.15;;;6.78;;
55497;SDS011;41357;52.806;18.268;2023-01-29T08:09:57;13.98;;;6.32;;
55497;SDS011;41357;52.806;18.268;2023-01-29T08:12:23;19.60;;;7.55;;
55497;SDS011;41357;52.806;18.268;2023-01-29T08:14:49;10.95;;;5.70;;
55497;SDS011;41357;52.806;18.268;2023-01-29T08:17:15;9.80;;;5.45;;
55497;SDS011;41357;52.806;18.268;2023-01-29T08:19:41;16.52;;;7.20;;
55497;SDS011;41357;52.806;18.268;2023-01-29T08:22:07;19.42;;;7.68;;
55497;SDS011;41357;52.806;18.268;2023-01-29T08:24:33;11.10;;;5.65;;
55497;SDS011;41357;52.806;18.268;2023-01-29T08:26:59;16.70;;;7.80;;
55497;SDS011;41357;52.806;18.268;2023-01-29T08:29:25;14.50;;;6.30;;
55497;SDS011;41357;52.806;18.268;2023-01-29T08:31:51;17.08;;;6.95;;
55497;SDS011;41357;52.806;18.268;2023-01-29T08:34:17;16.15;;;5.95;;
55497;SDS011;41357;52.806;18.268;2023-01-29T08:36:43;20.95;;;8.20;;
55497;SDS011;41357;52.806;18.268;2023-01-29T08:39:11;14.18;;;6.97;;
55497;SDS011;41357;52.806;18.268;2023-01-29T08:41:37;14.30;;;7.13;;
55497;SDS011;41357;52.806;18.268;2023-01-29T08:44:03;19.92;;;9.25;;
55497;SDS011;41357;52.806;18.268;2023-01-29T08:46:30;19.50;;;7.68;;
55497;SDS011;41357;52.806;18.268;2023-01-29T08:48:56;12.45;;;5.82;;
55497;SDS011;41357;52.806;18.268;2023-01-29T08:51:23;9.80;;;4.95;;
55497;SDS011;41357;52.806;18.268;2023-01-29T08:53:50;18.73;;;7.43;;
55497;SDS011;41357;52.806;18.268;2023-01-29T08:56:16;13.07;;;5.90;;
55497;SDS011;41357;52.806;18.268;2023-01-29T08:58:43;11.65;;;6.75;;
55497;SDS011;41357;52.806;18.268;2023-01-29T09:01:09;17.08;;;7.50;;
55497;SDS011;41357;52.806;18.268;2023-01-29T09:03:36;14.43;;;7.68;;
55497;SDS011;41357;52.806;18.268;2023-01-29T09:06:05;13.23;;;5.53;;
55497;SDS011;41357;52.806;18.268;2023-01-29T09:08:31;19.92;;;8.07;;
55497;SDS011;41357;52.806;18.268;2023-01-29T09:10:57;16.38;;;6.97;;
55497;SDS011;41357;52.806;18.268;2023-01-29T09:13:24;13.95;;;6.38;;
55497;SDS011;41357;52.806;18.268;2023-01-29T09:15:50;28.88;;;9.57;;
55497;SDS011;41357;52.806;18.268;2023-01-29T09:18:16;16.00;;;6.32;;
55497;SDS011;41357;52.806;18.268;2023-01-29T09:20:42;13.57;;;6.63;;
55497;SDS011;41357;52.806;18.268;2023-01-29T09:23:09;25.88;;;9.43;;
55497;SDS011;41357;52.806;18.268;2023-01-29T09:25:35;26.08;;;9.77;;
55497;SDS011;41357;52.806;18.268;2023-01-29T09:28:02;23.10;;;7.82;;
55497;SDS011;41357;52.806;18.268;2023-01-29T09:30:28;19.27;;;7.95;;
55497;SDS011;41357;52.806;18.268;2023-01-29T09:32:54;20.77;;;8.93;;
55497;SDS011;41357;52.806;18.268;2023-01-29T09:35:21;12.60;;;6.47;;
55497;SDS011;41357;52.806;18.268;2023-01-29T09:37:48;18.73;;;7.75;;
55497;SDS011;41357;52.806;18.268;2023-01-29T09:40:24;18.48;;;8.00;;
55497;SDS011;41357;52.806;18.268;2023-01-29T09:43:01;14.02;;;6.57;;
55497;SDS011;41357;52.806;18.268;2023-01-29T09:45:28;16.38;;;7.38;;
55497;SDS011;41357;52.806;18.268;2023-01-29T09:47:56;17.67;;;8.45;;
55497;SDS011;41357;52.806;18.268;2023-01-29T09:50:26;17.88;;;8.57;;
55497;SDS011;41357;52.806;18.268;2023-01-29T09:53:02;20.30;;;8.48;;
55497;SDS011;41357;52.806;18.268;2023-01-29T09:55:31;16.35;;;6.72;;
55497;SDS011;41357;52.806;18.268;2023-01-29T10:14:22;15.40;;;6.25;;
55497;SDS011;41357;52.806;18.268;2023-01-29T10:16:58;33.78;;;12.85;;
55497;SDS011;41357;52.806;18.268;2023-01-29T10:22:23;34.50;;;13.48;;
55497;SDS011;41357;52.806;18.268;2023-01-29T10:24:54;37.70;;;13.30;;
55497;SDS011;41357;52.806;18.268;2023-01-29T10:27:22;35.00;;;13.15;;
55497;SDS011;41357;52.806;18.268;2023-01-29T10:29:50;22.80;;;11.02;;
55497;SDS011;41357;52.806;18.268;2023-01-29T10:32:18;21.45;;;10.98;;
55497;SDS011;41357;52.806;18.268;2023-01-29T10:34:50;24.30;;;11.10;;
55497;SDS011;41357;52.806;18.268;2023-01-29T10:37:18;29.02;;;11.95;;
55497;SDS011;41357;52.806;18.268;2023-01-29T10:39:45;25.13;;;11.27;;
55497;SDS011;41357;52.806;18.268;2023-01-29T10:50:00;22.50;;;9.60;;
55497;SDS011;41357;52.806;18.268;2023-01-29T10:57:41;19.08;;;10.43;;
55497;SDS011;41357;52.806;18.268;2023-01-29T11:00:18;30.45;;;13.25;;
55497;SDS011;41357;52.806;18.268;2023-01-29T11:02:46;38.80;;;16.52;;
55497;SDS011;41357;52.806;18.268;2023-01-29T11:05:18;30.58;;;12.95;;
55497;SDS011;41357;52.806;18.268;2023-01-29T11:07:45;34.72;;;14.23;;
55497;SDS011;41357;52.806;18.268;2023-01-29T11:10:13;26.13;;;12.30;;
55497;SDS011;41357;52.806;18.268;2023-01-29T11:12:42;42.53;;;16.73;;
55497;SDS011;41357;52.806;18.268;2023-01-29T11:15:18;31.25;;;13.68;;
55497;SDS011;41357;52.806;18.268;2023-01-29T11:20:45;27.20;;;12.73;;
55497;SDS011;41357;52.806;18.268;2023-01-29T11:23:32;24.40;;;10.68;;
55497;SDS011;41357;52.806;18.268;2023-01-29T11:25:58;27.30;;;11.20;;
55497;SDS011;41357;52.806;18.268;2023-01-29T11:31:24;25.25;;;9.63;;
55497;SDS011;41357;52.806;18.268;2023-01-29T11:34:12;26.50;;;12.57;;
55497;SDS011;41357;52.806;18.268;2023-01-29T11:36:37;28.85;;;12.07;;
55497;SDS011;41357;52.806;18.268;2023-01-29T11:41:41;30.40;;;11.40;;
55497;SDS011;41357;52.806;18.268;2023-01-29T11:44:21;21.25;;;8.57;;
55497;SDS011;41357;52.806;18.268;2023-01-29T11:46:51;25.88;;;10.48;;
55497;SDS011;41357;52.806;18.268;2023-01-29T11:49:22;28.85;;;9.77;;
55497;SDS011;41357;52.806;18.268;2023-01-29T11:51:53;18.05;;;8.75;;
55497;SDS011;41357;52.806;18.268;2023-01-29T11:54:20;19.08;;;8.88;;
55497;SDS011;41357;52.806;18.268;2023-01-29T11:56:50;24.33;;;11.57;;
55497;SDS011;41357;52.806;18.268;2023-01-29T11:59:38;20.25;;;8.02;;
55497;SDS011;41357;52.806;18.268;2023-01-29T12:02:03;23.42;;;11.10;;
55497;SDS011;41357;52.806;18.268;2023-01-29T12:04:30;26.27;;;13.18;;
55497;SDS011;41357;52.806;18.268;2023-01-29T12:06:56;28.25;;;12.75;;
55497;SDS011;41357;52.806;18.268;2023-01-29T12:09:23;24.35;;;11.13;;
55497;SDS011;41357;52.806;18.268;2023-01-29T12:11:53;20.50;;;9.55;;
55497;SDS011;41357;52.806;18.268;2023-01-29T12:14:25;33.92;;;12.15;;
55497;SDS011;41357;52.806;18.268;2023-01-29T12:24:55;20.20;;;9.57;;
55497;SDS011;41357;52.806;18.268;2023-01-29T12:30:11;19.48;;;9.65;;
55497;SDS011;41357;52.806;18.268;2023-01-29T12:32:42;21.83;;;9.95;;
55497;SDS011;41357;52.806;18.268;2023-01-29T12:40:14;31.08;;;13.63;;
55497;SDS011;41357;52.806;18.268;2023-01-29T12:42:42;35.13;;;14.40;;
55497;SDS011;41357;52.806;18.268;2023-01-29T12:45:11;40.55;;;15.18;;
55497;SDS011;41357;52.806;18.268;2023-01-29T12:50:16;25.50;;;10.10;;
55497;SDS011;41357;52.806;18.268;2023-01-29T12:52:46;25.77;;;11.43;;
55497;SDS011;41357;52.806;18.268;2023-01-29T12:55:17;20.67;;;8.80;;
55497;SDS011;41357;52.806;18.268;2023-01-29T13:00:12;21.77;;;9.45;;
55497;SDS011;41357;52.806;18.268;2023-01-29T13:02:42;25.45;;;11.75;;
55497;SDS011;41357;52.806;18.268;2023-01-29T13:05:24;26.90;;;12.70;;
55497;SDS011;41357;52.806;18.268;2023-01-29T13:07:53;28.20;;;11.88;;
55497;SDS011;41357;52.806;18.268;2023-01-29T13:10:27;21.67;;;10.98;;
55497;SDS011;41357;52.806;18.268;2023-01-29T13:13:01;32.67;;;14.30;;
55497;SDS011;41357;52.806;18.268;2023-01-29T13:15:30;35.22;;;13.75;;
55497;SDS011;41357;52.806;18.268;2023-01-29T13:18:01;54.58;;;18.48;;
55497;SDS011;41357;52.806;18.268;2023-01-29T13:20:31;30.35;;;12.77;;
55497;SDS011;41357;52.806;18.268;2023-01-29T13:23:12;47.47;;;16.67;;
55497;SDS011;41357;52.806;18.268;2023-01-29T13:25:40;29.50;;;10.40;;
55497;SDS011;41357;52.806;18.268;2023-01-29T13:28:14;19.70;;;8.68;;
55497;SDS011;41357;52.806;18.268;2023-01-29T13:30:41;27.50;;;12.48;;
55497;SDS011;41357;52.806;18.268;2023-01-29T13:33:14;26.90;;;11.27;;
55497;SDS011;41357;52.806;18.268;2023-01-29T13:35:44;24.98;;;9.55;;
55497;SDS011;41357;52.806;18.268;2023-01-29T13:38:44;49.88;;;18.27;;
55497;SDS011;41357;52.806;18.268;2023-01-29T13:41:04;46.63;;;18.15;;
55497;SDS011;41357;52.806;18.268;2023-01-29T13:43:36;41.83;;;15.60;;
55497;SDS011;41357;52.806;18.268;2023-01-29T13:46:14;37.83;;;16.38;;
55497;SDS011;41357;52.806;18.268;2023-01-29T13:48:42;24.20;;;11.02;;
55497;SDS011;41357;52.806;18.268;2023-01-29T13:51:10;24.05;;;9.30;;
55497;SDS011;41357;52.806;18.268;2023-01-29T13:53:49;32.47;;;15.13;;
55497;SDS011;41357;52.806;18.268;2023-01-29T13:59:05;37.33;;;13.88;;
55497;SDS011;41357;52.806;18.268;2023-01-29T14:06:59;38.28;;;15.77;;
55497;SDS011;41357;52.806;18.268;2023-01-29T14:09:30;31.45;;;11.90;;
55497;SDS011;41357;52.806;18.268;2023-01-29T14:11:57;23.67;;;10.63;;
55497;SDS011;41357;52.806;18.268;2023-01-29T14:17:08;28.35;;;11.77;;
55497;SDS011;41357;52.806;18.268;2023-01-29T14:19:34;27.33;;;12.52;;
55497;SDS011;41357;52.806;18.268;2023-01-29T14:22:01;25.48;;;9.88;;
55497;SDS011;41357;52.806;18.268;2023-01-29T14:24:28;23.77;;;9.85;;
55497;SDS011;41357;52.806;18.268;2023-01-29T14:26:55;29.77;;;12.77;;
55497;SDS011;41357;52.806;18.268;2023-01-29T14:29:23;27.98;;;11.32;;
55497;SDS011;41357;52.806;18.268;2023-01-29T14:31:54;16.42;;;7.53;;
55497;SDS011;41357;52.806;18.268;2023-01-29T14:34:27;18.45;;;8.90;;
55497;SDS011;41357;52.806;18.268;2023-01-29T14:37:02;22.80;;;9.80;;
55497;SDS011;41357;52.806;18.268;2023-01-29T14:39:46;20.75;;;9.75;;
55497;SDS011;41357;52.806;18.268;2023-01-29T14:42:15;26.40;;;9.30;;
55497;SDS011;41357;52.806;18.268;2023-01-29T14:47:19;23.80;;;11.95;;
55497;SDS011;41357;52.806;18.268;2023-01-29T14:52:15;25.92;;;10.40;;
55497;SDS011;41357;52.806;18.268;2023-01-29T14:54:41;22.95;;;10.30;;
55497;SDS011;41357;52.806;18.268;2023-01-29T14:57:09;27.45;;;10.40;;
55497;SDS011;41357;52.806;18.268;2023-01-29T14:59:42;26.08;;;10.38;;
55497;SDS011;41357;52.806;18.268;2023-01-29T15:02:16;21.20;;;8.48;;
55497;SDS011;41357;52.806;18.268;2023-01-29T15:04:47;19.58;;;8.23;;
55497;SDS011;41357;52.806;18.268;2023-01-29T15:07:16;18.70;;;8.68;;
55497;SDS011;41357;52.806;18.268;2023-01-29T15:09:45;21.65;;;7.40;;
55497;SDS011;41357;52.806;18.268;2023-01-29T15:14:55;18.05;;;8.50;;
55497;SDS011;41357;52.806;18.268;2023-01-29T15:17:26;20.90;;;9.50;;
55497;SDS011;41357;52.806;18.268;2023-01-29T15:19:53;28.45;;;11.00;;
55497;SDS011;41357;52.806;18.268;2023-01-29T15:22:21;29.98;;;11.00;;
55497;SDS011;41357;52.806;18.268;2023-01-29T15:25:04;33.20;;;11.68;;
55497;SDS011;41357;52.806;18.268;2023-01-29T15:27:31;29.45;;;9.32;;
55497;SDS011;41357;52.806;18.268;2023-01-29T15:30:02;33.03;;;12.98;;
55497;SDS011;41357;52.806;18.268;2023-01-29T15:34:55;53.53;;;16.73;;
55497;SDS011;41357;52.806;18.268;2023-01-29T15:37:30;39.15;;;15.30;;
55497;SDS011;41357;52.806;18.268;2023-01-29T15:39:56;38.58;;;15.40;;
55497;SDS011;41357;52.806;18.268;2023-01-29T15:42:24;26.52;;;12.40;;
55497;SDS011;41357;52.806;18.268;2023-01-29T15:44:54;42.35;;;16.02;;
55497;SDS011;41357;52.806;18.268;2023-01-29T15:47:21;27.90;;;11.25;;
55497;SDS011;41357;52.806;18.268;2023-01-29T15:49:48;40.53;;;15.48;;
55497;SDS011;41357;52.806;18.268;2023-01-29T15:52:16;41.15;;;14.82;;
55497;SDS011;41357;52.806;18.268;2023-01-29T15:54:44;26.23;;;10.52;;
55497;SDS011;41357;52.806;18.268;2023-01-29T15:57:18;41.45;;;15.23;;
55497;SDS011;41357;52.806;18.268;2023-01-29T15:59:44;33.97;;;13.68;;
55497;SDS011;41357;52.806;18.268;2023-01-29T16:02:27;50.40;;;20.25;;
55497;SDS011;41357;52.806;18.268;2023-01-29T16:04:54;34.75;;;14.20;;
55497;SDS011;41357;52.806;18.268;2023-01-29T16:07:20;52.13;;;20.77;;
55497;SDS011;41357;52.806;18.268;2023-01-29T16:09:47;54.53;;;19.38;;
55497;SDS011;41357;52.806;18.268;2023-01-29T16:12:14;37.85;;;17.85;;
55497;SDS011;41357;52.806;18.268;2023-01-29T16:14:40;38.60;;;13.80;;
55497;SDS011;41357;52.806;18.268;2023-01-29T16:17:25;50.13;;;18.95;;
55497;SDS011;41357;52.806;18.268;2023-01-29T16:19:56;50.33;;;16.00;;
55497;SDS011;41357;52.806;18.268;2023-01-29T16:22:23;60.42;;;20.55;;
55497;SDS011;41357;52.806;18.268;2023-01-29T16:24:50;53.72;;;21.20;;
55497;SDS011;41357;52.806;18.268;2023-01-29T16:27:17;45.90;;;17.00;;
55497;SDS011;41357;52.806;18.268;2023-01-29T16:29:43;48.42;;;17.40;;
55497;SDS011;41357;52.806;18.268;2023-01-29T16:32:09;39.28;;;14.40;;
55497;SDS011;41357;52.806;18.268;2023-01-29T16:34:38;35.65;;;13.65;;
55497;SDS011;41357;52.806;18.268;2023-01-29T16:37:06;28.15;;;14.05;;
55497;SDS011;41357;52.806;18.268;2023-01-29T16:39:42;29.02;;;12.88;;
55497;SDS011;41357;52.806;18.268;2023-01-29T16:44:39;25.75;;;11.60;;
55497;SDS011;41357;52.806;18.268;2023-01-29T16:47:13;31.17;;;12.10;;
55497;SDS011;41357;52.806;18.268;2023-01-29T16:49:48;31.25;;;14.93;;
55497;SDS011;41357;52.806;18.268;2023-01-29T16:54:41;18.90;;;8.90;;
55497;SDS011;41357;52.806;18.268;2023-01-29T16:57:12;30.27;;;13.10;;
55497;SDS011;41357;52.806;18.268;2023-01-29T16:59:39;27.10;;;11.57;;
55497;SDS011;41357;52.806;18.268;2023-01-29T17:02:27;38.40;;;13.23;;
55497;SDS011;41357;52.806;18.268;2023-01-29T17:04:52;61.45;;;21.27;;
55497;SDS011;41357;52.806;18.268;2023-01-29T17:07:21;32.58;;;14.00;;